EW1423 Weather Reports


time (UTC)temp
C
wind
direction
speed
KPH
gust
KPH
rain 1hr
cm
rain 24hr
cm
rain mn
cm
humidity
%
barometer
mb
20200805074804 17 236 1.6 4.8 0.00 0.03 0.03 69 1019.7
20200805074304 17 236 1.6 4.8 0.00 0.03 0.03 71 1019.7
20200805073804 16 134 1.6 3.2 0.00 0.03 0.03 70 1019.7
20200805073304 16 132 1.6 3.2 0.00 0.03 0.03 72 1019.8
20200805072804 16 132 1.6 4.8 0.00 0.03 0.03 73 1019.8
20200805072304 16 116 1.6 4.8 0.00 0.03 0.03 74 1019.8
20200805071804 16 119 1.6 3.2 0.00 0.03 0.03 73 1019.9
20200805071304 15 163 0.0 3.2 0.00 0.03 0.03 75 1019.9
20200805070804 15 159 3.2 8.0 0.00 0.03 0.03 76 1019.9
20200805070304 15 132 1.6 4.8 0.00 0.03 0.03 77 1019.9
20200805065804 15 43 1.6 3.2 0.00 0.03 0.03 77 1020.0
20200805065303 14 42 0.0 3.2 0.00 0.03 0.03 77 1020.0
20200805064804 14 93 1.6 4.8 0.00 0.03 0.03 77 1020.0
20200805064304 14 133 3.2 4.8 0.00 0.03 0.03 79 1020.1
20200805063804 13 159 3.2 8.0 0.00 0.03 0.03 80 1020.1
20200805063303 13 161 3.2 8.0 0.00 0.03 0.03 81 1020.0
20200805062806 13 166 3.2 8.0 0.00 0.03 0.03 81 1020.0
20200805062304 13 123 3.2 4.8 0.00 0.03 0.03 81 1020.0
20200805061805 13 127 1.6 4.8 0.00 0.05 0.03 81 1020.2
20200805061303 12 127 0.0 3.2 0.00 0.05 0.03 83 1020.1
20200805060804 12 127 1.6 3.2 0.00 0.05 0.03 84 1020.2
20200805060304 12 127 0.0 1.6 0.00 0.05 0.03 86 1020.2
20200805055804 12 127 0.0 1.6 0.00 0.05 0.03 86 1020.3
20200805055305 12 127 1.6 4.8 0.00 0.05 0.03 86 1020.3
20200805054803 11 126 3.2 4.8 0.00 0.08 0.03 87 1020.3
20200805054305 11 101 3.2 8.0 0.00 0.08 0.03 88 1020.3
20200805053804 11 104 3.2 4.8 0.00 0.08 0.03 88 1020.3
20200805053303 11 116 4.8 8.0 0.00 0.08 0.03 89 1020.3
20200805052804 11 111 3.2 4.8 0.00 0.10 0.03 89 1020.3
20200805052311 11 93 3.2 3.2 0.00 0.10 0.03 89 1020.4
20200805043305 10 100 1.6 4.8 0.00 0.10 0.03 91 1020.1
20200805042805 10 120 3.2 8.0 0.00 0.10 0.03 91 1020.1
20200805042305 10 124 3.2 8.0 0.00 0.10 0.03 91 1020.0
20200805041805 10 103 1.6 3.2 0.00 0.13 0.03 91 1019.8
20200805041306 10 107 1.6 3.2 0.00 0.13 0.03 91 1019.8
20200804223303 12 98 1.6 3.2 0.00 0.13 0.00 86 1019.1
20200804222803 12 98 1.6 1.6 0.00 0.15 0.00 86 1019.2
20200804222310 12 98 0.0 0.0 0.00 0.15 0.00 86 1019.1
20200804221804 12 98 0.0 1.6 0.00 0.15 0.00 87 1019.1
20200804221303 12 98 0.0 1.6 0.00 0.15 0.00 86 1019.2
20200804220819 12 98 0.0 1.6 0.00 0.15 0.00 85 1019.1
20200804220305 12 98 0.0 0.0 0.00 0.15 0.00 86 1019.1
20200804215805 12 98 0.0 1.6 0.00 0.18 0.15 86 1019.1
20200804215310 12 98 1.6 3.2 0.00 0.20 0.15 85 1019.1
20200804214804 12 98 0.0 0.0 0.00 0.23 0.15 85 1019.1
20200804214304 12 98 0.0 0.0 0.00 0.28 0.15 85 1019.1
20200804213804 13 98 0.0 1.6 0.00 0.33 0.15 85 1019.1
20200804213303 13 98 0.0 1.6 0.00 0.41 0.15 83 1019.2
20200804212809 13 98 0.0 3.2 0.00 0.48 0.15 83 1019.2
20200804212303 13 98 1.6 3.2 0.00 0.53 0.15 83 1019.1
20200804211803 13 98 0.0 3.2 0.00 0.58 0.15 82 1019.1
20200804211303 13 98 1.6 3.2 0.00 0.66 0.15 83 1019.1
20200804210803 13 86 1.6 3.2 0.00 0.71 0.15 83 1019.1
20200804210304 13 86 1.6 3.2 0.00 0.79 0.15 82 1019.1
20200804205804 13 86 0.0 0.0 0.00 0.79 0.15 82 1019.1
20200804205304 13 86 0.0 3.2 0.00 0.84 0.15 82 1019.0
20200804204804 13 86 1.6 3.2 0.00 0.86 0.15 82 1018.9
20200804204304 13 86 1.6 3.2 0.00 0.86 0.15 82 1019.0
20200804203805 13 86 1.6 1.6 0.00 0.86 0.15 82 1019.0
20200804203304 13 86 0.0 1.6 0.00 0.86 0.15 81 1019.0
20200804202803 14 86 1.6 1.6 0.00 0.86 0.15 81 1019.0
20200804202306 14 86 0.0 0.0 0.00 0.86 0.15 80 1019.0
20200804201804 14 86 0.0 4.8 0.00 0.86 0.15 80 1018.9
20200804201303 14 86 1.6 3.2 0.00 0.86 0.15 80 1018.9
20200804200805 14 86 1.6 3.2 0.00 0.86 0.15 80 1018.9
20200804200306 14 86 0.0 0.0 0.00 0.89 0.15 79 1018.9
20200804195803 15 86 0.0 1.6 0.00 0.89 0.15 79 1018.8
20200804195309 15 86 0.0 3.2 0.00 0.89 0.15 78 1018.8
20200804194804 15 86 1.6 8.0 0.00 0.89 0.15 78 1018.8
20200804194303 15 85 1.6 8.0 0.00 0.89 0.15 79 1018.8
20200804193805 15 97 3.2 4.8 0.00 0.89 0.15 79 1018.7
20200804193304 15 100 0.0 0.0 0.00 0.89 0.15 79 1018.6
20200804192803 15 100 0.0 0.0 0.00 0.89 0.15 78 1018.6
20200804192312 15 100 0.0 0.0 0.00 0.89 0.15 77 1018.5
20200804191805 15 100 1.6 3.2 0.00 0.89 0.15 76 1018.4
20200804191305 15 100 1.6 3.2 0.00 0.89 0.15 76 1018.3
20200804190803 15 100 0.0 0.0 0.00 0.89 0.15 76 1018.3
20200804190303 16 100 0.0 0.0 0.00 0.89 0.15 75 1018.3
20200804185803 16 100 0.0 1.6 0.00 0.89 0.15 74 1018.2
20200804185303 16 100 1.6 3.2 0.00 0.89 0.15 72 1018.2
20200804184803 17 100 0.0 1.6 0.00 0.89 0.15 71 1018.1
20200804184305 17 100 1.6 4.8 0.00 0.91 0.15 68 1018.1
20200804183804 17 100 1.6 4.8 0.00 0.91 0.15 67 1018.1
20200804183304 17 117 3.2 4.8 0.00 0.91 0.15 67 1018.0
20200804182805 17 90 1.6 4.8 0.00 0.91 0.15 66 1018.0
20200804182304 17 74 3.2 4.8 0.00 0.91 0.15 65 1018.0
20200804181803 17 113 3.2 4.8 0.00 0.91 0.15 65 1017.9
20200804181304 18 85 3.2 4.8 0.00 0.91 0.15 67 1017.9
20200804180804 18 109 3.2 4.8 0.00 0.91 0.15 66 1017.9
20200804180304 18 90 1.6 3.2 0.00 0.91 0.15 66 1017.9
20200804175803 18 90 0.0 3.2 0.00 0.91 0.15 67 1017.8
20200804175304 18 90 1.6 4.8 0.00 0.91 0.15 65 1017.8
20200804174806 18 120 1.6 4.8 0.00 0.91 0.15 62 1017.8
20200804174303 18 101 3.2 4.8 0.00 0.91 0.15 60 1017.7
20200804173804 18 96 3.2 8.0 0.00 0.91 0.15 60 1017.6
20200804173303 18 128 4.8 9.7 0.00 0.91 0.15 60 1017.6
20200804172804 18 118 3.2 8.0 0.00 0.91 0.15 60 1017.5
20200804172303 19 103 3.2 8.0 0.00 0.91 0.15 61 1017.5
20200804171804 19 99 3.2 8.0 0.00 0.91 0.15 61 1017.5
20200804171303 19 126 3.2 4.8 0.00 0.91 0.15 61 1017.5
20200804170804 19 126 4.8 9.7 0.00 0.91 0.15 61 1017.4
20200804170304 19 119 4.8 11.3 0.00 0.91 0.15 61 1017.4
20200804165803 19 134 3.2 11.3 0.00 0.91 0.15 61 1017.4
20200804165304 20 123 4.8 9.7 0.00 0.91 0.15 60 1017.4
20200804164805 20 134 1.6 4.8 0.00 0.91 0.15 59 1017.3
20200804164303 20 129 3.2 8.0 0.00 0.91 0.15 57 1017.3
20200804163804 20 158 3.2 8.0 0.00 0.91 0.15 57 1017.2
20200804163304 20 92 3.2 8.0 0.00 0.91 0.15 58 1017.2
20200804162804 20 121 3.2 9.7 0.00 0.91 0.15 57 1017.2
20200804162303 20 112 3.2 4.8 0.00 0.91 0.15 59 1017.1
20200804161804 19 113 4.8 9.7 0.00 0.91 0.15 60 1017.1
20200804155304 20 94 4.8 9.7 0.00 0.91 0.15 55 1017.2
20200804154803 20 84 3.2 8.0 0.00 0.91 0.15 55 1017.1
20200804154303 20 150 1.6 8.0 0.00 0.91 0.15 58 1017.2
20200804153803 20 112 4.8 9.7 0.00 0.91 0.15 60 1017.2
20200804153305 20 100 6.4 11.3 0.00 0.91 0.15 62 1017.3
20200804152810 20 95 6.4 11.3 0.00 0.91 0.15 60 1017.2
20200804152310 20 121 4.8 9.7 0.00 0.91 0.15 63 1017.3
20200804151804 20 106 6.4 11.3 0.00 0.91 0.15 62 1017.3
20200804151304 19 130 4.8 11.3 0.00 0.94 0.15 63 1017.3
20200804150808 19 89 4.8 9.7 0.00 0.94 0.15 67 1017.3
20200804150304 18 92 4.8 8.0 0.00 0.94 0.15 68 1017.2
20200804145806 18 100 3.2 4.8 0.00 0.94 0.15 70 1017.2
20200804145304 18 97 1.6 3.2 0.00 0.94 0.15 69 1017.2
20200804144804 18 102 3.2 8.0 0.00 0.94 0.15 69 1017.2
20200804144303 18 105 4.8 8.0 0.00 0.94 0.15 66 1017.4
20200804143803 18 89 4.8 9.7 0.00 0.94 0.15 62 1017.3
20200804143305 18 94 4.8 8.0 0.00 0.94 0.15 59 1017.2
20200804142804 18 119 3.2 8.0 0.00 0.94 0.15 59 1017.1
20200804142303 18 112 3.2 4.8 0.00 0.94 0.15 60 1017.1
20200804141804 19 110 4.8 11.3 0.00 0.94 0.15 61 1017.1
20200804141303 19 113 4.8 11.3 0.00 0.94 0.15 61 1017.1
20200804140803 20 123 3.2 11.3 0.00 0.94 0.15 60 1017.0
20200804140304 20 108 8.0 14.5 0.00 0.94 0.15 61 1017.1
20200804135804 20 113 4.8 12.9 0.00 0.94 0.15 57 1017.0
20200804135313 20 112 3.2 11.3 0.00 0.94 0.15 54 1017.0
20200804134804 20 149 3.2 12.9 0.00 0.94 0.15 57 1017.0
20200804134304 21 133 3.2 9.7 0.00 0.94 0.15 57 1017.0
20200804133803 20 12 3.2 4.8 0.00 0.94 0.15 58 1017.1
20200804133304 20 42 3.2 3.2 0.00 0.94 0.15 61 1017.1
20200804132804 18 29 1.6 4.8 0.00 0.94 0.15 63 1017.1
20200804132304 18 289 3.2 4.8 0.00 0.94 0.15 64 1017.1
20200804131803 18 5 3.2 8.0 0.00 0.94 0.15 63 1017.1
20200804131303 18 345 1.6 4.8 0.00 0.94 0.15 66 1017.1
20200804130804 18 294 3.2 4.8 0.00 0.94 0.15 63 1017.1
20200804130303 18 294 3.2 8.0 0.00 0.94 0.15 67 1017.1